createdAt,value
2023-01-19T00:18:04.268Z,82.16
2023-01-19T00:39:50.028Z,81.58
2023-01-19T01:01:45.249Z,82.00
2023-01-19T01:23:31.931Z,80.87
2023-01-19T01:51:28.069Z,78.72
2023-01-19T02:13:21.316Z,77.67
2023-01-19T02:35:08.373Z,77.79
2023-01-19T02:57:19.227Z,77.68
2023-01-19T03:19:11.095Z,76.89
2023-01-19T03:41:01.016Z,76.96
2023-01-19T04:02:46.808Z,77.67
2023-01-19T04:24:32.643Z,78.97
2023-01-19T04:51:15.897Z,79.54
2023-01-19T05:13:01.944Z,81.27
2023-01-19T05:34:47.838Z,81.73
2023-01-19T05:56:32.886Z,82.39
2023-01-19T06:18:18.466Z,82.38
2023-01-19T06:51:06.642Z,81.91
2023-01-19T07:12:53.355Z,80.96
2023-01-19T07:34:39.260Z,80.14
2023-01-19T07:56:27.800Z,78.51
2023-01-19T08:18:15.825Z,77.10
2023-01-19T08:40:01.588Z,76.01
2023-01-19T09:01:47.588Z,75.49
2023-01-19T09:23:33.460Z,75.00
2023-01-19T09:45:28.250Z,73.53
2023-01-19T10:07:22.619Z,70.93
2023-01-19T10:29:20.161Z,66.13
2023-01-19T10:51:07.958Z,63.17
2023-01-19T11:13:07.565Z,61.94
2023-01-19T11:51:19.993Z,61.83
2023-01-19T12:13:06.292Z,61.32
2023-01-19T13:05:52.342Z,61.65
2023-01-19T13:27:36.613Z,61.98
2023-01-19T13:49:22.666Z,62.49
2023-01-19T14:11:06.898Z,62.26
2023-01-19T14:32:49.801Z,61.97
2023-01-19T14:54:40.072Z,61.39
2023-01-19T15:16:23.671Z,62.34
2023-01-19T15:38:06.628Z,64.19
2023-01-19T15:59:50.795Z,65.11
2023-01-19T16:21:33.709Z,66.53
2023-01-19T16:43:18.029Z,67.09
2023-01-19T17:05:00.916Z,68.08
2023-01-19T17:26:45.300Z,69.12
2023-01-19T17:48:28.191Z,69.62
2023-01-19T18:10:12.494Z,70.26
2023-01-19T18:31:55.851Z,70.89
2023-01-19T18:53:39.430Z,71.34
2023-01-19T19:15:22.556Z,71.78
2023-01-19T19:37:05.494Z,71.99
2023-01-19T19:58:49.037Z,72.07
2023-01-19T20:20:32.293Z,72.84
2023-01-19T20:42:15.991Z,73.30
2023-01-19T21:03:58.953Z,73.45
2023-01-19T21:25:50.434Z,73.50
2023-01-19T21:47:34.850Z,73.04
2023-01-19T22:09:17.699Z,72.92
2023-01-19T22:31:05.881Z,72.78
2023-01-19T22:52:48.873Z,72.28
2023-01-19T23:14:31.738Z,73.32
2023-01-19T23:36:15.649Z,73.70
2023-01-19T23:57:58.589Z,72.97
